Latest Weather Observations for Bathurst Airport

IDN60801

Issued at 8:23 pm EDT Sunday 24 January 2021 (issued every 10 minutes, with the page automatically refreshed every 10 minutes)

About weather observations | Map of weather stations | Latest weather observations for NSW | Other Formats
Station Details ID: 063291 Name: BATHURST AIRPORT AWS Lat: -33.41 Lon: 149.65 Height: 744.5 m
Data from the previous 72 hours. | See also: Recent months at Bathurst Airport
Date/Time
EDT
Temp
°C
App
Temp
°C
Dew
Point
°C
Rel
Hum
%
Delta-T
°C
Wind Press
QNH
hPa
Press
MSL
hPa
Rain since
9am
mm
Dir  Spd
km/h
Gust
km/h
Spd
kts
Gust
kts
24/08:00pm 23.4 20.3 15.5 61 4.9 NE 26 32 14 17 1014.4 1010.4 0.0
24/07:30pm 24.1 21.6 14.2 54 6.0 ENE 20 28 11 15 1014.3 1010.3 0.0
24/07:00pm 26.5 23.9 13.3 44 8.0 NE 19 26 10 14 1014.4 1010.4 0.0
24/06:30pm 29.2 26.1 12.2 35 10.2 NNW 20 24 11 13 1013.5 1009.5 0.0
24/06:00pm 29.8 27.5 11.8 33 10.8 NNW 15 24 8 13 1012.8 1008.8 0.0
24/05:30pm 33.7 30.5 8.3 21 14.7 SW 15 20 8 11 1012.5 1008.5 0.0
24/05:00pm 34.7 33.4 11.2 24 14.3 W 9 19 5 10 1012.6 1008.6 0.0
24/04:30pm 35.0 32.8 10.8 23 14.6 WNW 13 20 7 11 1012.9 1008.9 0.0
24/04:00pm 32.3 30.1 10.9 27 12.8 WNW 13 17 7 9 1013.4 1009.4 0.0
24/03:30pm 32.8 31.1 11.3 27 13.0 W 11 24 6 13 1013.7 1009.7 0.0
24/03:00pm 34.4 31.5 10.9 24 14.2 NNW 17 26 9 14 1014.2 1010.2 0.0
24/02:30pm 32.3 29.8 10.9 27 12.8 N 15 22 8 12 1014.6 1010.6 0.0
24/02:00pm 34.6 31.9 10.4 23 14.5 NE 15 22 8 12 1014.8 1010.8 0.0
24/01:30pm 33.5 32.1 9.5 23 14.1 NNE 7 17 4 9 1015.3 1011.3 0.0
24/01:00pm 33.5 32.2 11.4 26 13.4 W 9 17 5 9 1015.8 1011.9 0.0
24/12:30pm 32.3 31.4 12.5 30 12.1 NW 9 20 5 11 1016.3 1012.3 0.0
24/12:00pm 31.4 30.6 11.7 29 11.9 W 7 17 4 9 1016.6 1012.6 0.0
24/11:30am 30.9 29.5 12.3 32 11.3 NW 11 20 6 11 1017.0 1013.1 0.0
24/11:00am 30.2 29.8 13.0 34 10.5 WNW 7 15 4 8 1017.2 1013.3 0.0
24/10:30am 29.4 28.3 13.2 37 9.9 NNW 11 19 6 10 1017.6 1013.6 0.0
24/10:00am 28.4 27.5 12.7 38 9.5 NNW 9 15 5 8 1017.7 1013.7 0.0
24/09:30am 27.0 25.3 12.6 41 8.7 N 13 19 7 10 1017.9 1013.9 0.0
24/09:00am 24.9 25.1 14.1 51 6.6 NNE 6 9 3 5 1017.9 1013.9 0.0
24/08:30am 22.5 23.6 13.6 57 5.3 CALM 0 0 0 0 1018.0 1014.0 0.0
24/08:00am 20.4 21.2 13.6 65 4.0 W 2 6 1 3 1018.0 1014.0 0.0
24/07:30am 18.5 19.6 13.6 73 2.9 CALM 0 0 0 0 1017.7 1013.7 0.0
24/07:00am 15.9 15.5 13.0 83 1.7 SSW 7 11 4 6 1017.3 1013.4 0.0
24/06:30am 18.3 18.1 13.6 74 2.8 ESE 7 9 4 5 1016.8 1012.8 0.0
24/06:00am 17.2 16.2 13.5 79 2.2 SE 11 13 6 7 1016.7 1012.7 0.0
24/05:30am 16.9 16.3 12.4 75 2.6 SSE 7 11 4 6 1016.4 1012.4 0.0
24/05:00am 18.1 17.9 13.0 72 3.0 E 6 7 3 4 1016.1 1012.1 0.0
24/04:30am 18.0 19.0 13.1 73 2.9 CALM 0 0 0 0 1016.1 1012.1 0.0
24/04:00am 18.6 19.2 11.9 65 3.8 CALM 0 0 0 0 1016.2 1012.2 0.0
24/03:30am 20.0 20.8 12.5 62 4.4 CALM 0 0 0 0 1016.2 1012.2 0.0
24/03:00am 20.8 20.0 13.0 61 4.6 NE 9 11 5 6 1016.2 1012.2 0.0
24/02:30am 20.4 20.2 12.9 62 4.4 N 6 7 3 4 1016.5 1012.5 0.0
24/02:00am 20.1 19.2 12.6 62 4.4 N 9 11 5 6 1016.6 1012.6 0.0
24/01:30am 21.3 19.3 12.7 58 5.1 NNE 15 17 8 9 1016.5 1012.5 0.0
24/01:00am 21.7 19.0 12.8 57 5.2 NNE 19 20 10 11 1016.4 1012.4 0.0
24/12:30am 20.9 18.5 12.8 60 4.8 NNE 17 17 9 9 1016.5 1012.5 0.0
24/12:00am 20.0 18.3 12.5 62 4.4 N 13 15 7 8 1016.5 1012.5 0.0
 
Date/Time
EDT
Temp
°C
App
Temp
°C
Dew
Point
°C
Rel
Hum
%
Delta-T
°C
Wind Press
QNH
hPa
Press
MSL
hPa
Rain since
9am
mm
Dir  Spd
km/h
Gust
km/h
Spd
kts
Gust
kts
23/11:30pm 20.7 19.1 11.6 56 5.2 NNE 11 13 6 7 1016.3 1012.3 0.0
23/11:00pm 21.3 20.0 11.3 53 5.7 NE 9 11 5 6 1016.4 1012.4 0.0
23/10:30pm 21.6 19.5 11.0 51 6.1 NE 13 15 7 8 1016.3 1012.3 0.0
23/10:00pm 22.7 20.9 10.8 47 6.8 NE 11 13 6 7 1016.1 1012.1 0.0
23/09:30pm 24.2 22.4 10.8 43 7.7 NE 11 13 6 7 1015.8 1011.9 0.0
23/09:00pm 24.6 23.5 10.8 42 8.0 N 7 9 4 5 1015.5 1011.5 0.0
23/08:30pm 25.0 23.6 10.8 41 8.2 N 9 11 5 6 1015.2 1011.2 0.0
23/08:00pm 26.8 25.4 10.9 37 9.3 N 9 13 5 7 1015.0 1011.0 0.0
23/07:30pm 28.9 26.5 10.1 31 10.9 NW 13 17 7 9 1014.8 1010.8 0.0
23/07:00pm 31.2 29.2 10.0 27 12.4 NW 11 15 6 8 1014.7 1010.7 0.0
23/06:30pm 32.3 29.1 9.8 25 13.2 WNW 17 24 9 13 1014.4 1010.4 0.0
23/06:00pm 32.7 30.3 10.1 25 13.4 WNW 13 19 7 10 1014.3 1010.3 0.0
23/05:30pm 33.3 31.0 10.6 25 13.6 NW 13 20 7 11 1014.3 1010.3 0.0
23/05:00pm 32.8 31.4 10.8 26 13.2 NNW 9 15 5 8 1014.6 1010.6 0.0
23/04:30pm 31.0 28.7 10.4 28 12.2 NW 13 19 7 10 1014.9 1010.9 0.0
23/04:00pm 31.0 28.7 10.4 28 12.2 WNW 13 19 7 10 1015.1 1011.1 0.0
23/03:30pm 30.7 27.9 10.1 28 12.1 WNW 15 20 8 11 1015.3 1011.3 0.0
23/03:00pm 34.1 31.1 11.9 26 13.6 WNW 19 32 10 17 1015.4 1011.4 0.0
23/02:30pm 33.3 30.6 11.8 27 13.1 WNW 17 26 9 14 1015.4 1011.4 0.0
23/02:00pm 32.5 29.5 10.5 26 13.1 WNW 17 26 9 14 1015.7 1011.8 0.0
23/01:30pm 32.0 29.5 12.3 30 12.0 WNW 17 28 9 15 1015.9 1012.0 0.0
23/01:00pm 31.9 28.9 12.7 31 11.8 WNW 20 32 11 17 1016.3 1012.3 0.0
23/12:30pm 30.9 28.5 13.7 35 10.7 WNW 19 30 10 16 1016.5 1012.5 0.0
23/12:00pm 30.0 27.4 13.3 36 10.3 NW 19 30 10 16 1016.8 1012.8 0.0
23/11:30am 30.0 27.8 14.5 38 9.7 NW 19 28 10 15 1017.1 1013.2 0.0
23/11:00am 28.1 26.4 13.6 41 8.9 NW 15 26 8 14 1017.3 1013.4 0.0
23/10:30am 27.8 26.4 14.4 43 8.3 NNW 15 20 8 11 1017.5 1013.5 0.0
23/10:00am 26.7 26.0 15.4 50 7.1 N 13 22 7 12 1017.6 1013.6 0.0
23/09:30am 25.3 24.0 14.7 51 6.5 N 15 20 8 11 1017.6 1013.6 0.0
23/09:00am 24.2 23.1 14.3 54 6.0 N 13 19 7 10 1017.7 1013.7 0.0
23/08:30am 23.1 22.2 13.8 55 5.6 NNE 11 15 6 8 1017.5 1013.5 0.0
23/08:00am 22.4 21.6 14.0 59 5.1 NNE 11 13 6 7 1017.2 1013.3 0.0
23/07:30am 21.1 20.7 14.0 64 4.3 ENE 9 11 5 6 1017.0 1013.1 0.0
23/07:00am 19.2 18.8 14.0 72 3.1 NE 9 11 5 6 1016.6 1012.6 0.0
23/06:30am 17.2 16.5 13.1 77 2.4 NE 9 11 5 6 1016.2 1012.2 0.0
23/06:00am 17.3 16.4 12.6 74 2.7 NE 9 13 5 7 1015.6 1011.6 0.0
23/05:30am 17.9 16.7 12.8 72 3.0 NE 11 11 6 6 1015.2 1011.2 0.0
23/05:00am 17.8 16.7 12.0 69 3.3 ENE 9 11 5 6 1015.0 1011.0 0.0
23/04:30am 18.7 17.9 12.9 69 3.4 NE 9 11 5 6 1014.6 1010.6 0.0
23/04:00am 18.2 17.6 12.4 69 3.3 NE 7 11 4 6 1014.3 1010.3 0.0
23/03:30am 17.8 16.4 12.3 70 3.2 NE 11 11 6 6 1014.1 1010.1 0.0
23/03:00am 18.2 17.2 12.2 68 3.4 NNE 9 9 5 5 1014.1 1010.1 0.0
23/02:30am 18.6 17.5 11.9 65 3.8 NNE 9 9 5 5 1014.3 1010.3 0.0
23/02:00am 18.5 17.7 11.8 65 3.8 NNE 7 9 4 5 1014.3 1010.3 0.0
23/01:30am 18.2 17.3 11.5 65 3.8 N 7 9 4 5 1014.2 1010.2 0.0
23/01:00am 18.6 17.3 11.4 63 4.1 NNE 9 11 5 6 1014.1 1010.1 0.0
23/12:30am 18.6 17.4 11.7 64 3.9 NNE 9 11 5 6 1014.2 1010.2 0.0
23/12:00am 18.5 17.0 12.0 66 3.7 NNE 11 13 6 7 1014.2 1010.2 0.0
 
Date/Time
EDT
Temp
°C
App
Temp
°C
Dew
Point
°C
Rel
Hum
%
Delta-T
°C
Wind Press
QNH
hPa
Press
MSL
hPa
Rain since
9am
mm
Dir  Spd
km/h
Gust
km/h
Spd
kts
Gust
kts
22/11:30pm 18.6 17.4 11.7 64 3.9 NE 9 11 5 6 1014.1 1010.1 0.0
22/11:00pm 19.7 18.1 11.7 60 4.6 NE 11 13 6 7 1014.0 1010.0 0.0
22/10:30pm 20.0 18.4 11.5 58 4.9 NE 11 13 6 7 1014.0 1010.0 0.0
22/10:00pm 21.3 19.9 10.8 51 6.0 NNE 9 11 5 6 1013.9 1009.9 0.0
22/09:30pm 21.5 19.6 10.6 50 6.2 NNE 11 13 6 7 1013.6 1009.6 0.0
22/09:00pm 22.2 20.8 11.0 49 6.4 NNE 9 11 5 6 1013.2 1009.1 0.0
22/08:30pm 23.0 21.7 11.1 47 6.9 NNE 9 11 5 6 1012.8 1008.8 0.0
22/08:00pm 23.6 22.0 11.6 47 7.0 N 11 13 6 7 1012.5 1008.5 0.0
22/07:30pm 26.1 24.4 11.1 39 8.8 NNE 11 13 6 7 1012.2 1008.2 0.0
22/07:00pm 26.3 24.2 11.2 38 8.9 N 13 15 7 8 1012.2 1008.2 0.0
22/06:30pm 26.9 23.4 10.2 35 9.6 N 19 24 10 13 1012.0 1007.9 0.0
22/06:00pm 29.1 25.3 9.8 30 11.2 N 20 26 11 14 1011.6 1007.6 0.0
22/05:30pm 31.1 27.7 9.3 26 12.6 NW 17 24 9 13 1011.6 1007.6 0.0
22/05:00pm 31.6 28.0 9.8 26 12.8 WNW 19 28 10 15 1011.8 1007.7 0.0
22/04:30pm 30.3 28.7 10.3 29 11.7 WNW 9 20 5 11 1012.0 1007.9 0.0
22/04:00pm 29.3 25.2 7.8 26 12.1 NW 19 24 10 13 1012.1 1008.1 0.0
22/03:30pm 32.4 28.6 9.9 25 13.3 NW 20 32 11 17 1012.2 1008.2 0.0
22/03:00pm 32.1 28.3 9.0 24 13.4 NW 19 33 10 18 1012.5 1008.5 0.0
22/02:30pm 30.6 26.8 7.7 24 12.9 NW 17 32 9 17 1012.8 1008.8 0.0
22/02:00pm 30.6 27.8 10.0 28 12.1 W 15 32 8 17 1013.0 1009.0 0.0
22/01:30pm 30.3 27.2 10.3 29 11.7 WNW 17 32 9 17 1013.5 1009.5 0.0
22/01:00pm 30.6 27.3 11.5 30 11.4 NW 20 33 11 18 1014.0 1010.0 0.0
22/12:30pm 29.0 25.4 9.7 30 11.2 WNW 19 26 10 14 1014.3 1010.3 0.0
22/12:00pm 28.1 25.0 10.3 33 10.4 NW 17 30 9 16 1014.4 1010.4 0.0
22/11:30am 27.8 24.4 11.4 36 9.7 NNW 20 35 11 19 1014.8 1010.8 0.0
22/11:00am 26.9 23.1 11.0 37 9.3 NNW 22 30 12 16 1015.2 1011.2 0.0
22/10:30am 25.8 22.1 11.6 41 8.4 NNW 22 30 12 16 1015.2 1011.2 0.0
22/10:00am 24.9 21.2 11.5 43 7.8 N 22 30 12 16 1015.3 1011.3 0.0
22/09:30am 24.0 21.6 12.6 49 6.8 N 17 22 9 12 1015.6 1011.6 0.0
22/09:00am 22.3 20.9 12.3 53 5.9 N 11 20 6 11 1015.7 1011.8 0.0
22/08:30am 20.8 20.1 12.0 57 5.1 N 7 11 4 6 1015.6 1011.6 0.0
22/08:00am 18.8 19.5 12.1 65 3.8 CALM 0 0 0 0 1015.6 1011.6 0.0
22/07:30am 17.3 17.8 11.6 69 3.2 CALM 0 0 0 0 1015.2 1011.2 0.0
22/07:00am 16.8 16.4 12.9 78 2.3 ENE 7 9 4 5 1015.2 1011.2 0.0
22/06:30am 13.8 14.0 11.7 87 1.2 N 2 9 1 5 1015.1 1011.1 0.0
22/06:00am 14.4 13.8 12.4 88 1.1 NNE 7 9 4 5 1014.8 1010.8 0.0
22/05:30am 14.1 13.6 12.1 88 1.1 W 6 11 3 6 1014.4 1010.4 0.0
22/05:00am 15.1 14.9 11.7 80 1.9 NNW 4 9 2 5 1014.2 1010.2 0.0
22/04:30am 16.0 16.2 11.8 76 2.4 NE 2 7 1 4 1014.2 1010.2 0.0
22/04:00am 16.0 14.6 12.2 78 2.2 NE 11 13 6 7 1014.1 1010.1 0.0
22/03:30am 15.6 14.7 12.5 82 1.8 NNE 9 11 5 6 1014.2 1010.2 0.0
22/03:00am 15.7 14.4 12.5 81 1.8 NE 11 13 6 7 1014.3 1010.3 0.0
22/02:30am 15.9 14.1 12.1 78 2.2 NE 13 15 7 8 1014.7 1010.7 0.0
22/02:00am 16.6 15.6 12.4 76 2.4 NE 9 11 5 6 1014.9 1010.9 0.0
22/01:30am 16.6 16.1 12.2 75 2.5 W 6 9 3 5 1015.2 1011.2 0.0
22/01:00am 17.8 17.1 12.0 69 3.3 SSW 7 7 4 4 1015.2 1011.2 0.0
22/12:30am 17.9 17.3 12.4 70 3.2 SW 7 7 4 4 1015.2 1011.2 0.0
22/12:00am 17.8 17.1 12.0 69 3.3 SSW 7 7 4 4 1015.5 1011.5 0.0
 
Date/Time
EDT
Temp
°C
App
Temp
°C
Dew
Point
°C
Rel
Hum
%
Delta-T
°C
Wind Press
QNH
hPa
Press
MSL
hPa
Rain since
9am
mm
Dir  Spd
km/h
Gust
km/h
Spd
kts
Gust
kts
21/11:30pm 19.2 19.7 11.7 62 4.3 CALM 0 0 0 0 1015.4 1011.4 0.0
21/11:00pm 19.2 19.8 12.0 63 4.1 CALM 0 6 0 3 1015.2 1011.2 0.0
21/10:30pm 18.7 18.1 11.8 64 3.9 NE 6 13 3 7 1015.3 1011.3 0.0
21/10:00pm 19.3 17.0 11.6 61 4.4 NE 15 19 8 10 1014.9 1010.9 0.0
21/09:30pm 20.1 17.7 11.3 57 5.0 NE 15 19 8 10 1014.7 1010.7 0.0
21/09:00pm 21.6 19.8 11.0 51 6.1 E 11 17 6 9 1014.3 1010.3 0.0
21/08:30pm 21.4 19.2 9.3 46 6.7 N 11 13 6 7 1014.0 1010.0 0.0

Other formats

Comma delimited format used in spreadsheet applications
http://www.bom.gov.au/fwo/IDN60801/IDN60801.94729.axf

JavaScript Object Notation format (JSON) in row-major order
http://www.bom.gov.au/fwo/IDN60801/IDN60801.94729.json

Data quality

Most of these data are generated automatically and are frequently updated. Quality checks on data are not normally performed. It is possible for incorrect values to appear. Refer to information at About Latest Weather Observations and please check the disclaimer before using these data.